Home > Products > Valid Products > SSM

000
SMZS01 NSTU 041200
SSMPPG
AAXX 04124
91765 11466 80000 10268 20257 30113 40117 57007 69931 78082 8552/
333 10315 56999 58017 70003 555 90412=





000
SMZS01 NSTU 041200
SSMPPG
AAXX 04124
91765 11466 80000 10268 20257 30113 40117 57007 69931 78082 8552/
333 10315 56999 58017 70003 555 90412=





000
SMZS01 NSTU 040600
SSMPPG
AAXX 04064
91765 32566 89902 10287 20254 30098 40102 52012 82171 333 56999
70000 555 90406





000
SMZS01 NSTU 040600
SSMPPG
AAXX 04064
91765 32566 89902 10287 20254 30098 40102 52012 82171 333 56999
70000 555 90406





000
SMZS01 NSTU 040600
SSMPPG
AAXX 04064
91765 32566 89902 10287 20254 30098 40102 52012 82171 333 56999
70000 555 90406=





000
SMZS01 NSTU 040600
SSMPPG
AAXX 04064
91765 32566 89902 10287 20254 30098 40102 52012 82171 333 56999
70000 555 90406=





000
SMZS01 NSTU 031755
SSMPPG
AAXX 03184
91765 32569 59902 10269 20247 30107 40110 51017 81171 333 56999
70020 555 90318=




000
SMZS01 NSTU 031156
SSMPPG
AAXX 03124
91765 11466 80000 10267 20250 30097 40100 56014 69901 70282 82171
333 10299 56999 58007 70086 555 90312=




000
SMZS01 NSTU 030602
SSMPPG
AAXX 03064
91765 11462 80000 10273 20248 30097 40100 52017 60021 78082 8622/
333 56999 70086 555 90306=




000
SMZS01 NSTU 030602
SSMPPG
AAXX 03064
91765 11462 80000 10273 20248 30097 40100 52017 60021 78082 8622/
333 56999 70086 555 90306=




000
SMZS01 NSTU 022357
SSMPPG
AAXX 03004
91765 12467 79904 10294 20253 30098 40102 57014 60274 84170 333
20248 5699/ 58017 70274 555 90300=




000
SMZS01 NSTU 022357
SSMPPG
AAXX 03004
91765 12467 79904 10294 20253 30098 40102 57014 60274 84170 333
20248 5699/ 58017 70274 555 90300=




000
SMZS01 NSTU 021753
SSMPPG
AAXX 02184
91765 11469 80000 10248 20242 30093 40097 51012 60071 70282 83878
333 56999 70648 555 90218=




000
SMZS01 NSTU 021203
SSMPPG
AAXX 02124
91765 11561 89904 10269 20254 30090 40093 57007 69901 78082 8587/
333 10281 56999 58008 70602 555 90212=




000
SMZS01 NSTU 021203
SSMPPG
AAXX 02124
91765 11561 89904 10269 20254 30090 40093 57007 69901 78082 8587/
333 10281 56999 58008 70602 555 90212=




000
SMZS01 NSTU 020555
SSMPPG
AAXX 02064
91765 11466 59906 10267 20249 30083 40086 52017 60211 70280 83170
333 5699/ 70653 555 90206=





000
SMZS01 NSTU 020555
SSMPPG
AAXX 02064
91765 11466 59906 10267 20249 30083 40086 52017 60211 70280 83170
333 5699/ 70653 555 90206=





000
SMZS01 NSTU 012354
SSMPPG
AAXX 02004
91765 11208 81215 10258 20249 30081 40085 57010 60734 78282 883//
333 20247 56399 59006 70732 555 90200=





000
SMZS01 NSTU 012354
SSMPPG
AAXX 02004
91765 11208 81215 10258 20249 30081 40085 57010 60734 78282 883//
333 20247 56399 59006 70732 555 90200=





000
SMZS01 NSTU 011754
SSMPPG
AAXX 01184
91765 11469 60908 10260 20253 30075 40078 51012 60021 72582 84870
333 5629/ 70549 555 90118=




000
SMZS01 NSTU 011754
SSMPPG
AAXX 01184
91765 11469 60908 10260 20253 30075 40078 51012 60021 72582 84870
333 5629/ 70549 555 90118=




    US Dept of Commerce
    National Oceanic and Atmospheric Administration
    National Weather Service
    1325 East West Highway
    Silver Spring, MD 20910
    Page Author: NWS Internet Services Team
Disclaimer
Information Quality
Credits
Glossary
Privacy Policy
Freedom of Information Act (FOIA)
About Us
Career Opportunities